createdAt,value
2018-02-20T00:02:16.081Z,55.60
2018-02-20T00:04:43.550Z,51.57
2018-02-20T00:07:11.026Z,48.60
2018-02-20T00:09:38.507Z,54.03
2018-02-20T00:12:06.046Z,50.43
2018-02-20T00:14:33.529Z,47.83
2018-02-20T00:17:01.013Z,50.67
2018-02-20T00:19:28.501Z,51.80
2018-02-20T00:21:56.026Z,52.63
2018-02-20T00:24:23.615Z,50.47
2018-02-20T00:26:51.091Z,45.83
2018-02-20T00:29:18.563Z,49.87
2018-02-20T00:31:46.112Z,49.93
2018-02-20T00:34:13.600Z,47.50
2018-02-20T00:36:41.079Z,47.90
2018-02-20T00:39:08.629Z,50.17
2018-02-20T00:41:36.541Z,57.33
2018-02-20T00:44:04.007Z,55.50
2018-02-20T00:46:31.546Z,59.23
2018-02-20T00:48:59.026Z,52.07
2018-02-20T00:51:26.540Z,52.67
2018-02-20T00:53:54.014Z,54.07
2018-02-20T00:56:21.495Z,48.70
2018-02-20T00:58:49.005Z,51.40
2018-02-20T01:01:16.482Z,55.27
2018-02-20T01:03:44.063Z,53.50
2018-02-20T01:06:12.432Z,52.03
2018-02-20T01:08:39.923Z,48.77
2018-02-20T01:11:07.462Z,52.57
2018-02-20T01:13:34.970Z,53.57
2018-02-20T01:16:02.449Z,56.77
2018-02-20T01:18:29.929Z,53.57
2018-02-20T01:20:57.406Z,51.90
2018-02-20T01:23:24.940Z,49.97
2018-02-20T01:25:52.623Z,56.40
2018-02-20T01:28:20.206Z,46.43
2018-02-20T01:30:47.763Z,51.23
2018-02-20T01:33:17.085Z,56.97
2018-02-20T01:35:44.687Z,50.57
2018-02-20T01:38:12.175Z,50.43
2018-02-20T01:40:39.640Z,48.70
2018-02-20T01:43:07.180Z,55.90
2018-02-20T01:45:34.783Z,45.07
2018-02-20T01:48:02.304Z,54.93
2018-02-20T01:50:29.791Z,60.90
2018-02-20T01:52:57.306Z,48.40
2018-02-20T01:55:24.840Z,50.07
2018-02-20T01:57:52.315Z,49.43
2018-02-20T02:00:19.857Z,48.23
2018-02-20T02:02:47.318Z,58.10
2018-02-20T02:05:14.804Z,50.47
2018-02-20T02:07:42.373Z,50.77
2018-02-20T02:10:09.965Z,49.30
2018-02-20T02:12:37.511Z,51.43
2018-02-20T02:15:05.035Z,50.17
2018-02-20T02:17:32.478Z,56.50
2018-02-20T02:19:59.954Z,54.20
2018-02-20T02:22:27.465Z,50.77
2018-02-20T02:24:54.930Z,51.60
2018-02-20T02:27:22.410Z,57.00
2018-02-20T02:29:49.886Z,49.73
2018-02-20T02:32:17.393Z,51.77
2018-02-20T02:34:44.875Z,55.87
2018-02-20T02:37:12.421Z,53.80
2018-02-20T02:39:39.905Z,52.67
2018-02-20T02:42:07.475Z,53.47
2018-02-20T02:44:34.946Z,49.73
2018-02-20T02:47:02.437Z,47.30
2018-02-20T02:49:29.910Z,50.23
2018-02-20T02:51:57.378Z,46.93
2018-02-20T02:54:24.890Z,51.23
2018-02-20T02:56:52.364Z,47.30
2018-02-20T02:59:19.865Z,46.10
2018-02-20T03:01:47.339Z,49.27
2018-02-20T03:04:14.916Z,48.10
2018-02-20T03:06:42.489Z,48.87
2018-02-20T03:09:10.060Z,54.40
2018-02-20T03:11:37.524Z,46.90
2018-02-20T03:14:05.045Z,51.60
2018-02-20T03:16:32.544Z,48.10
2018-02-20T03:19:00.043Z,48.10
2018-02-20T03:21:27.624Z,53.37
2018-02-20T03:23:55.093Z,48.17
2018-02-20T03:26:22.576Z,49.60
2018-02-20T03:28:50.039Z,45.93
2018-02-20T03:31:17.597Z,44.57
2018-02-20T03:33:45.772Z,47.60
2018-02-20T03:36:13.245Z,51.50
2018-02-20T03:38:40.726Z,49.53
2018-02-20T03:41:08.215Z,48.30
2018-02-20T03:43:35.689Z,49.30
2018-02-20T03:46:03.154Z,47.30
2018-02-20T03:48:30.724Z,54.67
2018-02-20T03:50:58.461Z,48.27
2018-02-20T03:53:25.921Z,53.07
2018-02-20T03:55:53.406Z,47.20
2018-02-20T03:58:20.872Z,48.17
2018-02-20T04:00:48.399Z,48.33
2018-02-20T04:03:15.873Z,48.30
2018-02-20T04:05:43.346Z,46.67
2018-02-20T04:08:10.832Z,55.33
2018-02-20T04:10:38.349Z,54.60
2018-02-20T04:13:05.908Z,51.07
2018-02-20T04:15:33.439Z,52.67
2018-02-20T04:18:01.031Z,49.20
2018-02-20T04:20:28.553Z,55.43
2018-02-20T04:22:56.026Z,58.87
2018-02-20T04:25:23.516Z,43.20
2018-02-20T04:27:51.022Z,53.23
2018-02-20T04:30:18.494Z,56.53
2018-02-20T04:32:45.981Z,62.00
2018-02-20T04:35:13.452Z,53.43
2018-02-20T04:37:40.948Z,55.23
2018-02-20T04:40:08.407Z,53.33
2018-02-20T04:42:35.953Z,54.80
2018-02-20T04:45:06.397Z,57.70
2018-02-20T04:47:33.862Z,51.13
2018-02-20T04:50:01.382Z,50.47
2018-02-20T04:52:28.954Z,56.93
2018-02-20T04:54:56.426Z,60.17
2018-02-20T04:57:23.898Z,64.80
2018-02-20T04:59:51.394Z,56.87
2018-02-20T05:02:18.876Z,57.00
2018-02-20T05:04:46.364Z,55.23
2018-02-20T05:07:13.877Z,58.00
2018-02-20T05:09:41.463Z,54.13
2018-02-20T05:12:09.029Z,56.27
2018-02-20T05:14:36.511Z,56.37
2018-02-20T05:17:03.995Z,67.30
2018-02-20T05:19:31.474Z,63.23
2018-02-20T05:21:58.954Z,61.67
2018-02-20T05:24:26.456Z,54.13
2018-02-20T05:26:53.925Z,54.53
2018-02-20T05:29:21.423Z,56.20
2018-02-20T05:31:48.897Z,63.80
2018-02-20T05:34:16.412Z,69.97
2018-02-20T05:36:43.889Z,85.30
2018-02-20T05:39:11.402Z,64.00
2018-02-20T05:41:38.890Z,60.70
2018-02-20T05:44:06.363Z,59.97
2018-02-20T05:46:33.940Z,64.70
2018-02-20T05:49:01.400Z,56.07
2018-02-20T05:51:28.873Z,61.83
2018-02-20T05:53:56.444Z,51.53
2018-02-20T05:56:23.944Z,55.53
2018-02-20T05:58:51.495Z,54.70
2018-02-20T06:01:18.952Z,59.07
2018-02-20T06:03:46.525Z,66.37
2018-02-20T06:06:13.989Z,51.73
2018-02-20T06:08:41.465Z,56.73
2018-02-20T06:11:08.994Z,51.03
2018-02-20T06:13:36.573Z,58.07
2018-02-20T06:16:04.089Z,52.27
2018-02-20T06:18:31.650Z,55.40
2018-02-20T06:20:59.108Z,59.33
2018-02-20T06:23:26.583Z,53.37
2018-02-20T06:25:54.121Z,51.90
2018-02-20T06:28:21.591Z,54.23
2018-02-20T06:30:49.095Z,49.03
2018-02-20T06:33:16.579Z,52.37
2018-02-20T06:35:44.152Z,52.10
2018-02-20T06:38:12.061Z,57.93
2018-02-20T06:40:39.532Z,55.70
2018-02-20T06:43:06.991Z,50.03
2018-02-20T06:45:34.464Z,49.57
2018-02-20T06:48:02.068Z,49.40
2018-02-20T06:50:29.619Z,54.33
2018-02-20T06:52:57.134Z,54.43
2018-02-20T06:55:24.601Z,46.07
2018-02-20T06:57:52.128Z,56.37
2018-02-20T07:00:19.585Z,52.23
2018-02-20T07:02:47.086Z,51.63
2018-02-20T07:05:14.611Z,48.43
2018-02-20T07:07:42.083Z,47.73
2018-02-20T07:10:09.558Z,49.97
2018-02-20T07:12:37.122Z,50.27
2018-02-20T07:15:04.588Z,55.13
2018-02-20T07:17:32.081Z,47.17
2018-02-20T07:19:59.648Z,48.23
2018-02-20T07:22:27.213Z,52.53
2018-02-20T07:24:54.702Z,49.83
2018-02-20T07:27:22.160Z,52.50
2018-02-20T07:29:49.632Z,52.83
2018-02-20T07:32:17.131Z,47.10
2018-02-20T07:34:44.609Z,54.13
2018-02-20T07:37:12.153Z,48.77
2018-02-20T07:39:39.710Z,48.00
2018-02-20T07:42:07.295Z,44.90
2018-02-20T07:44:34.792Z,45.10
2018-02-20T07:47:02.325Z,47.97
2018-02-20T07:49:29.801Z,44.43
2018-02-20T07:51:57.384Z,44.70
2018-02-20T07:54:24.945Z,47.20
2018-02-20T07:56:52.407Z,50.60
2018-02-20T07:59:19.928Z,45.07
2018-02-20T08:01:47.392Z,41.83
2018-02-20T08:04:14.877Z,48.17
2018-02-20T08:06:42.351Z,42.97
2018-02-20T08:09:09.838Z,46.20
2018-02-20T08:11:38.518Z,48.30
2018-02-20T08:14:05.997Z,40.33
2018-02-20T08:16:33.508Z,48.80
2018-02-20T08:19:00.971Z,46.60
2018-02-20T08:21:28.446Z,42.37
2018-02-20T08:23:55.941Z,42.80
2018-02-20T08:26:23.418Z,55.50
2018-02-20T08:28:50.985Z,41.47
2018-02-20T08:31:18.533Z,47.37
2018-02-20T08:33:46.019Z,41.77
2018-02-20T08:36:13.589Z,46.47
2018-02-20T08:38:41.093Z,40.73
2018-02-20T08:41:08.581Z,45.17
2018-02-20T08:43:36.046Z,43.23
2018-02-20T08:46:03.532Z,46.27
2018-02-20T08:48:30.992Z,45.53
2018-02-20T08:50:58.518Z,41.90
2018-02-20T08:53:25.979Z,41.47
2018-02-20T08:55:53.484Z,41.47
2018-02-20T08:58:21.482Z,44.03
2018-02-20T09:00:48.956Z,40.10
2018-02-20T09:03:16.437Z,39.37
2018-02-20T09:05:43.917Z,40.30
2018-02-20T09:08:11.415Z,39.70
2018-02-20T09:10:38.871Z,37.47
2018-02-20T09:13:06.349Z,52.70
2018-02-20T09:15:33.830Z,39.37
2018-02-20T09:18:01.309Z,40.07
2018-02-20T09:20:28.776Z,38.53
2018-02-20T09:22:56.346Z,39.87
2018-02-20T09:25:23.814Z,37.23
2018-02-20T09:27:51.289Z,49.93
2018-02-20T09:30:18.852Z,39.27
2018-02-20T09:32:46.336Z,44.57
2018-02-20T09:35:13.798Z,44.10
2018-02-20T09:37:41.286Z,41.30
2018-02-20T09:40:08.816Z,39.27
2018-02-20T09:42:36.328Z,33.80
2018-02-20T09:45:03.894Z,33.93
2018-02-20T09:47:31.368Z,36.20
2018-02-20T09:49:58.909Z,36.27
2018-02-20T09:52:26.398Z,35.03
2018-02-20T09:54:53.894Z,33.57
2018-02-20T09:57:21.362Z,34.67
2018-02-20T09:59:48.910Z,29.30
2018-02-20T10:02:17.725Z,32.90
2018-02-20T10:04:45.211Z,29.70
2018-02-20T10:07:12.692Z,29.77
2018-02-20T10:09:40.226Z,29.67
2018-02-20T10:12:07.811Z,29.03
2018-02-20T10:14:35.384Z,27.63
2018-02-20T10:17:02.946Z,27.87
2018-02-20T10:19:30.397Z,31.93
2018-02-20T10:21:57.886Z,33.23
2018-02-20T10:24:25.350Z,31.77
2018-02-20T10:26:52.822Z,26.03
2018-02-20T10:29:20.303Z,30.17
2018-02-20T10:31:47.953Z,31.27
2018-02-20T10:34:15.410Z,26.17
2018-02-20T10:36:42.927Z,31.10
2018-02-20T10:39:10.382Z,28.60
2018-02-20T10:41:37.957Z,28.33
2018-02-20T10:44:05.567Z,30.27
2018-02-20T10:46:33.029Z,29.10
2018-02-20T10:49:00.581Z,27.83
2018-02-20T10:51:28.138Z,28.57
2018-02-20T10:53:55.606Z,27.37
2018-02-20T10:56:23.197Z,29.67
2018-02-20T10:58:50.783Z,24.90
2018-02-20T11:01:18.254Z,27.07
2018-02-20T11:03:45.733Z,24.67
2018-02-20T11:06:13.204Z,27.27
2018-02-20T11:08:40.757Z,21.20
2018-02-20T11:11:08.221Z,23.00
2018-02-20T11:13:35.691Z,25.30
2018-02-20T11:16:03.166Z,24.47
2018-02-20T11:18:30.635Z,27.93
2018-02-20T11:20:58.208Z,22.03
2018-02-20T11:23:25.821Z,29.97
2018-02-20T11:25:53.341Z,22.17
2018-02-20T11:28:20.823Z,23.70
2018-02-20T11:30:48.337Z,24.90
2018-02-20T11:33:15.804Z,26.93
2018-02-20T11:35:43.269Z,24.73
2018-02-20T11:38:10.809Z,23.87
2018-02-20T11:40:38.274Z,21.47
2018-02-20T11:43:05.770Z,27.77
2018-02-20T11:45:33.231Z,25.70
2018-02-20T11:48:00.724Z,23.33
2018-02-20T11:50:28.178Z,28.47
2018-02-20T11:52:55.647Z,24.37
2018-02-20T11:55:23.213Z,24.30
2018-02-20T11:57:50.779Z,24.83
2018-02-20T12:00:18.250Z,20.67
2018-02-20T12:02:45.768Z,22.77
2018-02-20T12:05:13.240Z,26.50
2018-02-20T12:07:40.793Z,26.37
2018-02-20T12:10:08.337Z,28.40
2018-02-20T12:12:35.810Z,24.07
2018-02-20T12:15:03.285Z,23.13
2018-02-20T12:17:30.745Z,27.63
2018-02-20T12:19:58.521Z,27.90
2018-02-20T12:22:25.997Z,31.27
2018-02-20T12:24:53.615Z,26.60
2018-02-20T12:27:21.299Z,31.20
2018-02-20T12:29:49.324Z,34.63
2018-02-20T12:32:17.103Z,34.37
2018-02-20T12:34:44.771Z,36.20
2018-02-20T12:37:12.236Z,33.83
2018-02-20T12:39:39.705Z,34.80
2018-02-20T12:42:07.185Z,32.23
2018-02-20T12:44:34.810Z,36.60
2018-02-20T12:47:02.279Z,35.23
2018-02-20T12:49:29.800Z,37.40
2018-02-20T12:51:57.382Z,36.60
2018-02-20T12:54:24.850Z,35.20
2018-02-20T12:56:52.366Z,36.30
2018-02-20T12:59:20.040Z,35.57
2018-02-20T13:01:47.530Z,40.10
2018-02-20T13:04:15.009Z,39.50
2018-02-20T13:06:42.517Z,41.63
2018-02-20T13:09:10.002Z,37.03
2018-02-20T13:11:37.462Z,38.20
2018-02-20T13:14:04.937Z,38.10
2018-02-20T13:16:32.493Z,39.30
2018-02-20T13:19:00.043Z,41.63
2018-02-20T13:21:27.533Z,37.97
2018-02-20T13:23:55.119Z,36.10
2018-02-20T13:26:23.005Z,40.20
2018-02-20T13:28:50.482Z,40.03
2018-02-20T13:31:17.954Z,36.77
2018-02-20T13:33:45.409Z,34.67
2018-02-20T13:36:12.880Z,35.50
2018-02-20T13:38:40.353Z,35.83
2018-02-20T13:41:07.833Z,34.47
2018-02-20T13:43:35.396Z,44.97
2018-02-20T13:46:02.970Z,34.53
2018-02-20T13:48:30.545Z,38.00
2018-02-20T13:50:58.302Z,39.77
2018-02-20T13:53:25.800Z,39.33
2018-02-20T13:55:53.378Z,39.67
2018-02-20T13:58:20.936Z,40.60
2018-02-20T14:00:48.407Z,42.67
2018-02-20T14:03:15.916Z,48.43
2018-02-20T14:05:43.394Z,50.70
2018-02-20T14:08:10.925Z,48.33
2018-02-20T14:10:38.500Z,41.77
2018-02-20T14:13:06.048Z,50.43
2018-02-20T14:15:33.541Z,41.87
2018-02-20T14:18:01.211Z,47.67
2018-02-20T14:20:28.701Z,49.37
2018-02-20T14:22:56.201Z,46.47
2018-02-20T14:25:23.724Z,50.63
2018-02-20T14:27:51.193Z,48.20
2018-02-20T14:30:18.784Z,49.67
2018-02-20T14:32:46.383Z,45.57
2018-02-20T14:35:13.895Z,48.23
2018-02-20T14:37:41.381Z,48.67
2018-02-20T14:40:08.850Z,49.93
2018-02-20T14:42:36.328Z,50.47
2018-02-20T14:45:03.797Z,53.60
2018-02-20T14:47:31.270Z,54.40
2018-02-20T14:49:58.738Z,56.73
2018-02-20T14:52:26.230Z,61.30
2018-02-20T14:54:53.690Z,64.97
2018-02-20T14:57:21.169Z,61.60
2018-02-20T14:59:48.662Z,59.43
2018-02-20T15:02:16.138Z,64.07
2018-02-20T15:04:43.605Z,59.37
2018-02-20T15:07:11.107Z,61.33
2018-02-20T15:09:38.607Z,59.43
2018-02-20T15:12:06.073Z,71.83
2018-02-20T15:14:33.581Z,63.43
2018-02-20T15:17:01.111Z,64.90
2018-02-20T15:19:28.583Z,65.83
2018-02-20T15:21:56.219Z,67.10
2018-02-20T15:24:23.711Z,63.37
2018-02-20T15:26:51.183Z,69.07
2018-02-20T15:29:18.677Z,69.17
2018-02-20T15:31:46.141Z,69.00
2018-02-20T15:34:13.776Z,71.73
2018-02-20T15:36:41.304Z,70.87
2018-02-20T15:39:08.774Z,72.83
2018-02-20T15:41:36.706Z,65.83
2018-02-20T15:44:04.224Z,72.97
2018-02-20T15:46:31.764Z,74.77
2018-02-20T15:48:59.192Z,74.60
2018-02-20T15:51:26.672Z,70.80
2018-02-20T15:53:54.188Z,77.50
2018-02-20T15:56:21.779Z,71.10
2018-02-20T15:58:49.382Z,77.47
2018-02-20T16:01:16.978Z,65.33
2018-02-20T16:03:44.504Z,78.73
2018-02-20T16:06:12.006Z,68.87
2018-02-20T16:08:39.474Z,75.77
2018-02-20T16:11:06.936Z,86.23
2018-02-20T16:13:34.491Z,73.00
2018-02-20T16:16:15.849Z,70.43
2018-02-20T16:18:43.337Z,81.27
2018-02-20T16:21:10.913Z,73.07
2018-02-20T16:23:38.370Z,77.23
2018-02-20T16:26:05.857Z,79.20
2018-02-20T16:28:33.337Z,76.07
2018-02-20T16:31:00.808Z,76.93
2018-02-20T16:33:28.414Z,77.23
2018-02-20T16:35:55.944Z,73.83
2018-02-20T16:38:23.471Z,76.37
2018-02-20T16:40:51.015Z,74.43
2018-02-20T16:43:18.583Z,75.60
2018-02-20T16:45:46.137Z,74.33
2018-02-20T16:48:13.616Z,76.13
2018-02-20T16:50:41.337Z,75.97
2018-02-20T16:53:08.839Z,79.10
2018-02-20T16:55:36.290Z,86.20
2018-02-20T16:58:03.766Z,72.73
2018-02-20T17:00:31.280Z,77.67
2018-02-20T17:02:58.748Z,83.60
2018-02-20T17:05:27.501Z,83.87
2018-02-20T17:07:54.992Z,86.13
2018-02-20T17:10:22.483Z,86.07
2018-02-20T17:12:49.967Z,75.43
2018-02-20T17:15:17.439Z,69.70
2018-02-20T17:17:45.002Z,72.43
2018-02-20T17:20:12.601Z,69.53
2018-02-20T17:22:40.109Z,71.20
2018-02-20T17:25:07.666Z,64.27
2018-02-20T17:27:35.155Z,63.30
2018-02-20T17:30:02.632Z,58.20
2018-02-20T17:32:30.099Z,70.33
2018-02-20T17:34:57.690Z,63.77
2018-02-20T17:37:25.218Z,59.13
2018-02-20T17:39:52.709Z,53.13
2018-02-20T17:42:20.246Z,54.83
2018-02-20T17:44:47.849Z,59.50
2018-02-20T17:47:15.354Z,57.13
2018-02-20T17:49:42.822Z,54.43
2018-02-20T17:52:10.317Z,57.77
2018-02-20T17:54:37.782Z,55.67
2018-02-20T17:57:05.277Z,61.10
2018-02-20T17:59:32.740Z,48.73
2018-02-20T18:02:00.215Z,48.30
2018-02-20T18:04:27.691Z,55.03
2018-02-20T18:06:55.238Z,58.83
2018-02-20T18:09:22.872Z,52.90
2018-02-20T18:11:50.500Z,56.83
2018-02-20T18:14:17.990Z,53.60
2018-02-20T18:16:45.545Z,59.27
2018-02-20T18:19:13.020Z,50.13
2018-02-20T18:21:40.600Z,55.63
2018-02-20T18:24:08.133Z,55.80
2018-02-20T18:26:35.631Z,51.00
2018-02-20T18:29:03.116Z,42.90
2018-02-20T18:31:30.581Z,49.13
2018-02-20T18:33:58.121Z,50.33
2018-02-20T18:36:25.593Z,51.27
2018-02-20T18:38:53.602Z,49.13
2018-02-20T18:41:21.102Z,56.70
2018-02-20T18:43:48.587Z,50.43
2018-02-20T18:46:16.138Z,52.80
2018-02-20T18:48:43.612Z,44.77
2018-02-20T18:51:11.158Z,48.13
2018-02-20T18:53:38.642Z,48.70
2018-02-20T18:56:06.117Z,51.37
2018-02-20T18:58:33.591Z,46.70
2018-02-20T19:01:01.390Z,52.30
2018-02-20T19:03:28.928Z,49.20
2018-02-20T19:05:56.541Z,49.60
2018-02-20T19:08:24.025Z,45.67
2018-02-20T19:10:51.510Z,51.77
2018-02-20T19:13:19.929Z,53.00
2018-02-20T19:15:47.446Z,54.57
2018-02-20T19:18:14.923Z,55.83
2018-02-20T19:20:42.407Z,57.27
2018-02-20T19:23:09.925Z,51.20
2018-02-20T19:25:37.409Z,57.17
2018-02-20T19:28:04.891Z,54.10
2018-02-20T19:30:32.380Z,52.60
2018-02-20T19:32:59.853Z,53.97
2018-02-20T19:35:27.319Z,56.60
2018-02-20T19:37:54.881Z,55.40
2018-02-20T19:40:22.490Z,59.73
2018-02-20T19:42:50.067Z,58.80
2018-02-20T19:45:17.557Z,59.30
2018-02-20T19:47:45.033Z,60.90
2018-02-20T19:50:12.495Z,57.03
2018-02-20T19:52:40.113Z,56.33
2018-02-20T19:55:07.653Z,57.23
2018-02-20T19:57:36.016Z,49.93
2018-02-20T20:00:03.511Z,57.20
2018-02-20T20:02:31.051Z,58.77
2018-02-20T20:04:58.529Z,53.63
2018-02-20T20:07:26.065Z,53.70
2018-02-20T20:09:53.632Z,62.20
2018-02-20T20:12:21.154Z,54.77
2018-02-20T20:14:48.939Z,56.17
2018-02-20T20:17:16.397Z,52.57
2018-02-20T20:19:43.896Z,55.43
2018-02-20T20:22:11.513Z,53.87
2018-02-20T20:24:38.986Z,58.03
2018-02-20T20:27:06.482Z,59.10
2018-02-20T20:29:33.938Z,67.27
2018-02-20T20:32:01.547Z,63.77
2018-02-20T20:34:29.169Z,52.37
2018-02-20T20:36:56.645Z,56.10
2018-02-20T20:39:25.475Z,56.20
2018-02-20T20:41:52.953Z,63.67
2018-02-20T20:44:20.462Z,47.10
2018-02-20T20:46:47.955Z,57.13
2018-02-20T20:49:15.441Z,59.87
2018-02-20T20:51:42.908Z,60.20
2018-02-20T20:54:10.409Z,64.33
2018-02-20T20:56:37.885Z,55.57
2018-02-20T20:59:05.347Z,56.60
2018-02-20T21:01:32.834Z,53.20
2018-02-20T21:04:00.392Z,60.57
2018-02-20T21:06:27.879Z,53.23
2018-02-20T21:08:55.356Z,56.87
2018-02-20T21:11:22.843Z,56.17
2018-02-20T21:13:50.313Z,56.83
2018-02-20T21:16:17.852Z,55.73
2018-02-20T21:18:45.349Z,57.87
2018-02-20T21:21:13.007Z,56.50
2018-02-20T21:23:40.486Z,52.20
2018-02-20T21:26:07.960Z,53.93
2018-02-20T21:28:35.440Z,53.07
2018-02-20T21:31:02.985Z,58.03
2018-02-20T21:33:30.505Z,55.33
2018-02-20T21:35:58.076Z,50.77
2018-02-20T21:38:25.570Z,56.07
2018-02-20T21:40:53.062Z,61.07
2018-02-20T21:43:20.569Z,53.30
2018-02-20T21:45:48.107Z,51.83
2018-02-20T21:48:15.575Z,46.03
2018-02-20T21:50:43.164Z,58.67
2018-02-20T21:53:10.641Z,55.67
2018-02-20T21:55:38.128Z,50.40
2018-02-20T21:58:05.607Z,59.27
2018-02-20T22:00:33.099Z,54.10
2018-02-20T22:03:00.568Z,48.77
2018-02-20T22:05:28.080Z,61.10
2018-02-20T22:07:55.561Z,55.37
2018-02-20T22:10:23.143Z,61.30
2018-02-20T22:12:50.628Z,50.57
2018-02-20T22:15:18.101Z,53.90
2018-02-20T22:17:45.646Z,49.70
2018-02-20T22:20:13.142Z,52.27
2018-02-20T22:22:40.649Z,58.83
2018-02-20T22:25:08.158Z,55.20
2018-02-20T22:27:35.640Z,56.27
2018-02-20T22:30:03.209Z,47.53
2018-02-20T22:32:30.762Z,54.43
2018-02-20T22:34:58.241Z,59.67
2018-02-20T22:37:25.735Z,51.40
2018-02-20T22:39:53.210Z,49.77
2018-02-20T22:42:21.584Z,46.90
2018-02-20T22:44:49.137Z,51.30
2018-02-20T22:47:16.613Z,54.53
2018-02-20T22:49:44.193Z,50.97
2018-02-20T22:52:11.754Z,51.17
2018-02-20T22:54:39.249Z,50.50
2018-02-20T22:57:06.772Z,47.70
2018-02-20T22:59:34.422Z,50.17
2018-02-20T23:02:01.882Z,50.80
2018-02-20T23:04:29.468Z,48.60
2018-02-20T23:06:56.990Z,47.67
2018-02-20T23:09:24.600Z,48.27
2018-02-20T23:11:52.104Z,50.43
2018-02-20T23:14:19.578Z,48.97
2018-02-20T23:16:47.061Z,53.07
2018-02-20T23:19:14.565Z,46.20
2018-02-20T23:21:42.049Z,50.70
2018-02-20T23:24:09.543Z,51.77
2018-02-20T23:26:37.066Z,47.53
2018-02-20T23:29:04.641Z,57.57
2018-02-20T23:31:32.194Z,59.43
2018-02-20T23:33:59.662Z,57.67
2018-02-20T23:36:27.152Z,52.23
2018-02-20T23:38:54.638Z,53.13
2018-02-20T23:41:22.191Z,47.17
2018-02-20T23:43:49.666Z,54.43
2018-02-20T23:46:17.161Z,47.77
2018-02-20T23:48:45.326Z,50.67
2018-02-20T23:51:18.474Z,50.53
2018-02-20T23:53:46.308Z,50.70
2018-02-20T23:56:13.780Z,50.23
2018-02-20T23:58:41.259Z,56.37
